Back to Top

Language: 

My Weather Underground Personal Weather Station Historical Data with Graphs...

Delerius Weather Station Historical Data
Daily Summary for June 28, 2017 Units:  English    Metric   Both
« Previous Day
Next Day »
Daily Weekly Monthly Yearly Custom
  High: Low: Average:
Temperature: 53.8 °F 49.8 °F 52 °F
Dew Point: 52.4 °F 48.7 °F 51 °F
Humidity: 97 % 95 % 96 %
Wind Speed: 9.0 mph 1.0 mph 5.8 mph
Wind Gust: 21.0 mph - -
Wind:- - SSE
Pressure: 29.66 in 29.40 in -
Precipitation: 0.76 in    
Historical Graphs
 
 
Tabular Data for June 28, 2017
Time Temperature Dew Point Pressure Wind Wind Speed Wind Gust Humidity Rainfall Rate (Hourly) solar Conditions
00:03 53.8 °F 52.4 °F 29.66 in ENE 6.0 mph 13.0 mph 95 % 0.02 in 0 W/m2
00:08 53.6 °F 52.2 °F 29.66 in ENE 6.0 mph 13.0 mph 95 % 0.02 in 0 W/m2
00:13 53.4 °F 52.3 °F 29.66 in ENE 5.0 mph 11.0 mph 96 % 0.02 in 0 W/m2
00:18 53.4 °F 52.0 °F 29.66 in ENE 5.0 mph 11.0 mph 95 % 0.02 in 0 W/m2
00:23 53.2 °F 51.8 °F 29.66 in ENE 6.0 mph 11.0 mph 95 % 0.02 in 0 W/m2
00:28 53.2 °F 52.1 °F 29.66 in ENE 6.0 mph 14.0 mph 96 % 0.02 in 0 W/m2
00:34 53.2 °F 52.1 °F 29.66 in ENE 6.0 mph 14.0 mph 96 % 0.01 in 0 W/m2
00:39 53.2 °F 52.1 °F 29.66 in ENE 5.0 mph 10.0 mph 96 % 0.01 in 0 W/m2
00:49 53.2 °F 52.1 °F 29.65 in ENE 5.0 mph 11.0 mph 96 % 0.01 in 0 W/m2
00:54 53.1 °F 52.0 °F 29.65 in ENE 5.0 mph 11.0 mph 96 % 0.01 in 0 W/m2
00:59 53.1 °F 52.0 °F 29.65 in ENE 4.0 mph 9.0 mph 96 % 0.01 in 0 W/m2
01:04 53.1 °F 52.0 °F 29.65 in ENE 4.0 mph 9.0 mph 96 % 0.01 in 0 W/m2
01:09 53.1 °F 52.0 °F 29.65 in ENE 4.0 mph 10.0 mph 96 % 0.01 in 0 W/m2
01:14 53.1 °F 52.0 °F 29.64 in ENE 5.0 mph 10.0 mph 96 % 0.01 in 0 W/m2
01:19 52.9 °F 51.8 °F 29.64 in ENE 5.0 mph 10.0 mph 96 % 0.01 in 0 W/m2
01:24 52.9 °F 51.8 °F 29.64 in ENE 5.0 mph 10.0 mph 96 % 0.01 in 0 W/m2
01:29 52.7 °F 51.6 °F 29.64 in ENE 5.0 mph 10.0 mph 96 % 0.01 in 0 W/m2
01:34 52.7 °F 51.6 °F 29.64 in ENE 5.0 mph 10.0 mph 96 % 0.01 in 0 W/m2
01:39 52.7 °F 51.6 °F 29.64 in ENE 4.0 mph 8.0 mph 96 % 0.01 in 0 W/m2
01:44 52.7 °F 51.6 °F 29.63 in NE 3.0 mph 8.0 mph 96 % 0.01 in 0 W/m2
01:49 52.5 °F 51.4 °F 29.63 in NE 4.0 mph 9.0 mph 96 % 0.00 in 0 W/m2
01:54 52.5 °F 51.4 °F 29.63 in NE 3.0 mph 9.0 mph 96 % 0.01 in 0 W/m2
01:59 52.5 °F 51.4 °F 29.63 in NE 4.0 mph 11.0 mph 96 % 0.01 in 0 W/m2
02:04 52.5 °F 51.4 °F 29.63 in NE 4.0 mph 11.0 mph 96 % 0.01 in 0 W/m2
02:05 52.5 °F 51.4 °F 29.63 in NE 4.0 mph 11.0 mph 96 % 0.01 in 0 W/m2
02:10 52.5 °F 51.4 °F 29.62 in NE 3.0 mph 9.0 mph 96 % 0.01 in 0 W/m2
02:15 52.5 °F 51.4 °F 29.62 in NE 3.0 mph 11.0 mph 96 % 0.02 in 0 W/m2
02:20 52.5 °F 51.7 °F 29.62 in NE 4.0 mph 11.0 mph 97 % 0.02 in 0 W/m2
02:21 52.5 °F 51.7 °F 29.62 in NE 4.0 mph 11.0 mph 97 % 0.02 in 0 W/m2
02:26 52.5 °F 51.7 °F 29.62 in ENE 4.0 mph 9.0 mph 97 % 0.02 in 0 W/m2
02:31 52.5 °F 51.7 °F 29.62 in NE 5.0 mph 10.0 mph 97 % 0.02 in 0 W/m2
02:36 52.5 °F 51.7 °F 29.61 in NE 4.0 mph 10.0 mph 97 % 0.02 in 0 W/m2
02:41 52.7 °F 51.9 °F 29.61 in NE 4.0 mph 11.0 mph 97 % 0.02 in 0 W/m2
02:46 52.7 °F 51.9 °F 29.61 in NE 4.0 mph 11.0 mph 97 % 0.02 in 0 W/m2
02:51 52.7 °F 51.9 °F 29.61 in NE 4.0 mph 9.0 mph 97 % 0.02 in 0 W/m2
02:56 52.7 °F 51.9 °F 29.61 in NE 5.0 mph 11.0 mph 97 % 0.02 in 0 W/m2
03:02 52.9 °F 52.1 °F 29.60 in NE 4.0 mph 11.0 mph 97 % 0.02 in 0 W/m2
03:07 52.9 °F 52.1 °F 29.60 in NE 4.0 mph 8.0 mph 97 % 0.03 in 0 W/m2
03:12 52.9 °F 52.1 °F 29.60 in NE 4.0 mph 10.0 mph 97 % 0.04 in 0 W/m2
03:17 52.9 °F 52.1 °F 29.60 in NE 4.0 mph 10.0 mph 97 % 0.03 in 0 W/m2
03:22 52.9 °F 52.1 °F 29.60 in NE 5.0 mph 10.0 mph 97 % 0.04 in 0 W/m2
03:27 52.9 °F 52.1 °F 29.60 in NE 5.0 mph 10.0 mph 97 % 0.04 in 0 W/m2
03:32 53.1 °F 52.2 °F 29.60 in NE 5.0 mph 9.0 mph 97 % 0.04 in 0 W/m2
03:37 53.1 °F 52.2 °F 29.60 in NE 5.0 mph 10.0 mph 97 % 0.05 in 0 W/m2
03:42 53.1 °F 52.2 °F 29.59 in NE 5.0 mph 10.0 mph 97 % 0.04 in 0 W/m2
03:47 53.2 °F 52.4 °F 29.59 in ENE 4.0 mph 8.0 mph 97 % 0.05 in 0 W/m2
03:52 53.2 °F 52.4 °F 29.59 in NE 5.0 mph 10.0 mph 97 % 0.05 in 0 W/m2
03:57 53.2 °F 52.4 °F 29.59 in NE 4.0 mph 10.0 mph 97 % 0.05 in 0 W/m2
04:02 53.2 °F 52.4 °F 29.59 in NE 4.0 mph 11.0 mph 97 % 0.06 in 0 W/m2
04:07 53.2 °F 52.4 °F 29.59 in NE 5.0 mph 11.0 mph 97 % 0.06 in 0 W/m2
04:12 53.2 °F 52.4 °F 29.59 in ENE 4.0 mph 9.0 mph 97 % 0.05 in 0 W/m2
04:17 53.2 °F 52.4 °F 29.59 in ENE 4.0 mph 8.0 mph 97 % 0.06 in 0 W/m2
04:22 53.2 °F 52.4 °F 29.58 in ENE 4.0 mph 8.0 mph 97 % 0.06 in 0 W/m2
04:27 53.2 °F 52.4 °F 29.58 in NE 5.0 mph 10.0 mph 97 % 0.06 in 0 W/m2
04:32 53.2 °F 52.4 °F 29.58 in NE 5.0 mph 10.0 mph 97 % 0.06 in 0 W/m2
04:37 53.2 °F 52.4 °F 29.58 in ENE 5.0 mph 9.0 mph 97 % 0.06 in 0 W/m2
04:42 53.2 °F 52.4 °F 29.58 in ENE 5.0 mph 10.0 mph 97 % 0.07 in 0 W/m2
04:47 53.2 °F 52.4 °F 29.58 in ENE 5.0 mph 11.0 mph 97 % 0.06 in 0 W/m2
04:52 53.2 °F 52.4 °F 29.58 in ENE 5.0 mph 11.0 mph 97 % 0.06 in 0 W/m2
04:57 53.2 °F 52.4 °F 29.58 in ENE 4.0 mph 9.0 mph 97 % 0.06 in 0 W/m2
05:02 53.2 °F 52.4 °F 29.58 in ENE 5.0 mph 13.0 mph 97 % 0.06 in 0 W/m2
05:08 53.2 °F 52.4 °F 29.58 in ENE 5.0 mph 13.0 mph 97 % 0.06 in 0 W/m2
05:13 53.2 °F 52.4 °F 29.58 in ENE 5.0 mph 11.0 mph 97 % 0.06 in 0 W/m2
05:18 53.2 °F 52.4 °F 29.58 in NE 4.0 mph 11.0 mph 97 % 0.06 in 0 W/m2
05:23 53.2 °F 52.4 °F 29.58 in NE 4.0 mph 11.0 mph 97 % 0.06 in 0 W/m2
05:28 53.2 °F 52.4 °F 29.58 in NE 6.0 mph 10.0 mph 97 % 0.06 in 0 W/m2
05:33 53.2 °F 52.4 °F 29.58 in ENE 5.0 mph 10.0 mph 97 % 0.06 in 0 W/m2
05:38 53.2 °F 52.4 °F 29.58 in ENE 5.0 mph 11.0 mph 97 % 0.06 in 0 W/m2
05:43 53.2 °F 52.4 °F 29.58 in ENE 5.0 mph 11.0 mph 97 % 0.06 in 5 W/m2
05:48 53.2 °F 52.4 °F 29.58 in ENE 4.0 mph 9.0 mph 97 % 0.06 in 5 W/m2
05:53 53.2 °F 52.4 °F 29.58 in NE 4.0 mph 9.0 mph 97 % 0.06 in 5 W/m2
05:58 53.2 °F 52.4 °F 29.58 in ENE 5.0 mph 9.0 mph 97 % 0.06 in 5 W/m2
06:03 53.2 °F 52.4 °F 29.58 in ENE 5.0 mph 9.0 mph 97 % 0.06 in 5 W/m2
06:08 53.2 °F 52.4 °F 29.58 in ENE 5.0 mph 9.0 mph 97 % 0.06 in 5 W/m2
06:13 53.2 °F 52.4 °F 29.58 in ENE 4.0 mph 9.0 mph 97 % 0.07 in 7 W/m2
06:18 53.2 °F 52.4 °F 29.58 in ENE 6.0 mph 12.0 mph 97 % 0.06 in 7 W/m2
06:23 53.2 °F 52.4 °F 29.58 in ENE 6.0 mph 12.0 mph 97 % 0.06 in 9 W/m2
06:28 53.2 °F 52.4 °F 29.58 in NE 5.0 mph 12.0 mph 97 % 0.06 in 11 W/m2
06:33 53.2 °F 52.4 °F 29.58 in NE 6.0 mph 12.0 mph 97 % 0.06 in 11 W/m2
06:38 53.2 °F 52.4 °F 29.58 in NE 6.0 mph 11.0 mph 97 % 0.06 in 14 W/m2
06:43 53.2 °F 52.4 °F 29.57 in ENE 6.0 mph 11.0 mph 97 % 0.07 in 16 W/m2
06:48 53.2 °F 52.4 °F 29.57 in ENE 6.0 mph 12.0 mph 97 % 0.06 in 16 W/m2
06:53 53.2 °F 52.4 °F 29.57 in ENE 6.0 mph 12.0 mph 97 % 0.06 in 16 W/m2
06:59 53.2 °F 52.4 °F 29.57 in NE 6.0 mph 11.0 mph 97 % 0.06 in 18 W/m2
07:04 53.2 °F 52.4 °F 29.57 in NE 5.0 mph 10.0 mph 97 % 0.07 in 16 W/m2
07:09 53.2 °F 52.4 °F 29.57 in NE 5.0 mph 9.0 mph 97 % 0.07 in 16 W/m2
07:14 53.2 °F 52.4 °F 29.57 in ENE 4.0 mph 9.0 mph 97 % 0.06 in 21 W/m2
07:19 53.2 °F 52.4 °F 29.57 in NE 3.0 mph 8.0 mph 97 % 0.07 in 18 W/m2
07:24 53.2 °F 52.4 °F 29.57 in NE 5.0 mph 9.0 mph 97 % 0.06 in 16 W/m2
07:29 53.1 °F 52.2 °F 29.57 in ENE 5.0 mph 10.0 mph 97 % 0.06 in 18 W/m2
07:34 53.1 °F 52.2 °F 29.57 in ENE 5.0 mph 14.0 mph 97 % 0.06 in 25 W/m2
07:39 53.1 °F 52.2 °F 29.57 in NE 5.0 mph 14.0 mph 97 % 0.06 in 25 W/m2
07:44 52.9 °F 52.1 °F 29.57 in NE 4.0 mph 10.0 mph 97 % 0.06 in 23 W/m2
07:49 52.9 °F 52.1 °F 29.57 in NE 6.0 mph 11.0 mph 97 % 0.07 in 23 W/m2
07:54 52.7 °F 51.9 °F 29.57 in NE 6.0 mph 12.0 mph 97 % 0.07 in 25 W/m2
07:59 52.5 °F 51.7 °F 29.57 in NE 5.0 mph 12.0 mph 97 % 0.06 in 26 W/m2
08:04 52.5 °F 51.7 °F 29.57 in NE 6.0 mph 11.0 mph 97 % 0.06 in 25 W/m2
08:09 52.5 °F 51.7 °F 29.57 in NE 5.0 mph 11.0 mph 97 % 0.06 in 25 W/m2
08:14 52.5 °F 51.7 °F 29.58 in NE 5.0 mph 10.0 mph 97 % 0.06 in 28 W/m2
08:19 52.3 °F 51.5 °F 29.57 in NE 6.0 mph 12.0 mph 97 % 0.06 in 32 W/m2
08:24 52.3 °F 51.5 °F 29.57 in NE 5.0 mph 12.0 mph 97 % 0.06 in 33 W/m2
08:29 52.3 °F 51.5 °F 29.57 in NE 4.0 mph 12.0 mph 97 % 0.06 in 26 W/m2
08:34 52.3 °F 51.5 °F 29.57 in NE 5.0 mph 11.0 mph 97 % 0.05 in 32 W/m2
08:39 52.3 °F 51.5 °F 29.57 in NE 4.0 mph 11.0 mph 97 % 0.05 in 30 W/m2
08:44 52.3 °F 51.5 °F 29.57 in NE 5.0 mph 13.0 mph 97 % 0.05 in 35 W/m2
08:49 52.3 °F 51.5 °F 29.57 in NE 4.0 mph 13.0 mph 97 % 0.05 in 35 W/m2
08:54 52.3 °F 51.5 °F 29.57 in ENE 3.0 mph 9.0 mph 97 % 0.04 in 35 W/m2
08:59 52.3 °F 51.5 °F 29.57 in NE 3.0 mph 8.0 mph 97 % 0.04 in 42 W/m2
09:04 52.3 °F 51.5 °F 29.57 in NE 3.0 mph 10.0 mph 97 % 0.04 in 42 W/m2
09:09 52.3 °F 51.5 °F 29.57 in NE 4.0 mph 11.0 mph 97 % 0.04 in 46 W/m2
09:14 52.5 °F 51.7 °F 29.57 in NE 4.0 mph 11.0 mph 97 % 0.04 in 53 W/m2
09:19 52.3 °F 51.5 °F 29.57 in NE 5.0 mph 14.0 mph 97 % 0.04 in 53 W/m2
09:24 52.3 °F 51.5 °F 29.57 in NE 6.0 mph 14.0 mph 97 % 0.04 in 46 W/m2
09:29 52.3 °F 51.5 °F 29.57 in NE 6.0 mph 14.0 mph 97 % 0.04 in 26 W/m2
09:34 52.3 °F 51.5 °F 29.57 in ENE 5.0 mph 14.0 mph 97 % 0.04 in 44 W/m2
09:40 52.3 °F 51.5 °F 29.57 in NE 5.0 mph 10.0 mph 97 % 0.04 in 46 W/m2
09:45 52.3 °F 51.5 °F 29.57 in NE 5.0 mph 12.0 mph 97 % 0.05 in 53 W/m2
09:50 52.0 °F 51.2 °F 29.57 in NE 6.0 mph 14.0 mph 97 % 0.04 in 65 W/m2
09:55 52.0 °F 51.2 °F 29.57 in NE 6.0 mph 14.0 mph 97 % 0.04 in 69 W/m2
10:00 51.8 °F 51.0 °F 29.57 in NE 6.0 mph 13.0 mph 97 % 0.03 in 62 W/m2
10:05 51.8 °F 51.0 °F 29.57 in NE 5.0 mph 14.0 mph 97 % 0.04 in 62 W/m2
10:10 51.8 °F 51.0 °F 29.57 in NE 5.0 mph 14.0 mph 97 % 0.03 in 53 W/m2
10:15 51.8 °F 51.0 °F 29.57 in NE 4.0 mph 11.0 mph 97 % 0.03 in 35 W/m2
10:25 51.8 °F 51.0 °F 29.57 in NE 5.0 mph 14.0 mph 97 % 0.03 in 58 W/m2
10:30 51.6 °F 50.8 °F 29.57 in NE 6.0 mph 14.0 mph 97 % 0.03 in 51 W/m2
10:35 51.4 °F 50.6 °F 29.57 in ENE 4.0 mph 10.0 mph 97 % 0.03 in 39 W/m2
10:37 51.4 °F 50.6 °F 29.57 in NE 5.0 mph 13.0 mph 97 % 0.03 in 44 W/m2
10:42 51.4 °F 50.6 °F 29.57 in NNE 4.0 mph 16.0 mph 97 % 0.03 in 46 W/m2
10:47 51.6 °F 50.8 °F 29.56 in NNE 4.0 mph 16.0 mph 97 % 0.03 in 56 W/m2
10:52 51.6 °F 50.8 °F 29.56 in NNE 5.0 mph 11.0 mph 97 % 0.03 in 58 W/m2
10:57 51.6 °F 50.8 °F 29.56 in NNE 4.0 mph 10.0 mph 97 % 0.03 in 53 W/m2
11:02 51.6 °F 50.8 °F 29.56 in NNE 4.0 mph 9.0 mph 97 % 0.02 in 56 W/m2
11:07 51.6 °F 50.8 °F 29.56 in NNE 5.0 mph 12.0 mph 97 % 0.03 in 74 W/m2
11:12 51.6 °F 50.8 °F 29.56 in NNE 4.0 mph 12.0 mph 97 % 0.03 in 54 W/m2
11:17 51.6 °F 50.8 °F 29.56 in NNE 1.0 mph 8.0 mph 97 % 0.03 in 63 W/m2
11:22 51.6 °F 50.8 °F 29.56 in NNE 3.0 mph 12.0 mph 97 % 0.03 in 51 W/m2
11:27 51.8 °F 51.0 °F 29.56 in NE 4.0 mph 12.0 mph 97 % 0.03 in 58 W/m2
11:32 51.8 °F 51.0 °F 29.56 in NE 4.0 mph 12.0 mph 97 % 0.02 in 62 W/m2
11:37 52.0 °F 51.2 °F 29.56 in NNE 5.0 mph 12.0 mph 97 % 0.02 in 56 W/m2
11:42 52.0 °F 51.2 °F 29.56 in NE 3.0 mph 9.0 mph 97 % 0.03 in 54 W/m2
11:47 52.0 °F 51.2 °F 29.56 in NE 3.0 mph 9.0 mph 97 % 0.02 in 63 W/m2
11:52 52.2 °F 51.3 °F 29.56 in NE 3.0 mph 9.0 mph 97 % 0.02 in 65 W/m2
11:57 52.2 °F 51.3 °F 29.56 in NNE 3.0 mph 9.0 mph 97 % 0.03 in 65 W/m2
12:02 52.3 °F 51.5 °F 29.56 in NNE 2.0 mph 7.0 mph 97 % 0.03 in 56 W/m2
12:07 52.3 °F 51.5 °F 29.56 in NNE 2.0 mph 9.0 mph 97 % 0.02 in 54 W/m2
12:12 52.5 °F 51.7 °F 29.56 in North 2.0 mph 9.0 mph 97 % 0.03 in 63 W/m2
12:17 52.5 °F 51.7 °F 29.55 in NNE 3.0 mph 11.0 mph 97 % 0.03 in 69 W/m2
12:22 52.5 °F 51.7 °F 29.55 in NNE 5.0 mph 11.0 mph 97 % 0.02 in 98 W/m2
12:27 52.5 °F 51.7 °F 29.55 in NNE 6.0 mph 13.0 mph 97 % 0.03 in 76 W/m2
12:32 52.7 °F 51.9 °F 29.55 in NE 5.0 mph 13.0 mph 97 % 0.03 in 60 W/m2
12:37 52.5 °F 51.7 °F 29.55 in NE 4.0 mph 10.0 mph 97 % 0.03 in 58 W/m2
12:42 52.3 °F 51.2 °F 29.55 in NE 5.0 mph 13.0 mph 96 % 0.02 in 47 W/m2
12:47 52.3 °F 51.2 °F 29.55 in NE 6.0 mph 13.0 mph 96 % 0.03 in 54 W/m2
12:52 52.3 °F 51.5 °F 29.55 in NE 4.0 mph 13.0 mph 97 % 0.03 in 60 W/m2
12:57 52.3 °F 51.5 °F 29.55 in NE 2.0 mph 7.0 mph 97 % 0.02 in 60 W/m2
13:02 52.5 °F 51.7 °F 29.55 in NNE 2.0 mph 7.0 mph 97 % 0.03 in 58 W/m2
13:03 52.5 °F 51.7 °F 29.55 in NNE 3.0 mph 7.0 mph 97 % 0.03 in 58 W/m2
13:08 52.5 °F 51.7 °F 29.55 in NNE 4.0 mph 11.0 mph 97 % 0.03 in 91 W/m2
13:13 52.5 °F 51.7 °F 29.55 in North 5.0 mph 15.0 mph 97 % 0.02 in 81 W/m2
13:18 52.5 °F 51.7 °F 29.55 in North 5.0 mph 15.0 mph 97 % 0.03 in 84 W/m2
13:23 52.3 °F 51.2 °F 29.55 in NNE 6.0 mph 18.0 mph 96 % 0.03 in 104 W/m2
13:28 52.2 °F 51.1 °F 29.55 in NNE 7.0 mph 18.0 mph 96 % 0.02 in 111 W/m2
13:33 52.2 °F 51.1 °F 29.55 in NNE 8.0 mph 15.0 mph 96 % 0.03 in 105 W/m2
13:38 52.2 °F 51.1 °F 29.54 in NNE 8.0 mph 15.0 mph 96 % 0.03 in 98 W/m2
13:43 52.2 °F 51.3 °F 29.55 in NNE 6.0 mph 15.0 mph 97 % 0.03 in 125 W/m2
13:48 52.2 °F 51.1 °F 29.54 in NNE 6.0 mph 13.0 mph 96 % 0.02 in 109 W/m2
13:53 52.0 °F 50.9 °F 29.54 in NNE 7.0 mph 13.0 mph 96 % 0.02 in 120 W/m2
13:58 52.0 °F 50.9 °F 29.54 in NNE 6.0 mph 13.0 mph 96 % 0.02 in 114 W/m2
14:03 52.2 °F 51.3 °F 29.54 in NNE 5.0 mph 12.0 mph 97 % 0.02 in 102 W/m2
14:08 52.3 °F 51.2 °F 29.54 in North 4.0 mph 10.0 mph 96 % 0.02 in 116 W/m2
14:14 52.3 °F 51.2 °F 29.54 in North 5.0 mph 10.0 mph 96 % 0.03 in 105 W/m2
14:18 52.5 °F 51.4 °F 29.54 in North 5.0 mph 11.0 mph 96 % 0.02 in 95 W/m2
14:24 52.3 °F 51.2 °F 29.54 in North 6.0 mph 12.0 mph 96 % 0.02 in 72 W/m2
14:29 52.3 °F 51.2 °F 29.53 in North 7.0 mph 12.0 mph 96 % 0.02 in 81 W/m2
14:34 52.3 °F 51.2 °F 29.53 in North 7.0 mph 16.0 mph 96 % 0.02 in 93 W/m2
14:39 52.2 °F 51.1 °F 29.53 in North 8.0 mph 16.0 mph 96 % 0.02 in 86 W/m2
14:44 52.3 °F 51.2 °F 29.53 in North 7.0 mph 13.0 mph 96 % 0.02 in 83 W/m2
14:49 52.3 °F 51.2 °F 29.53 in North 6.0 mph 12.0 mph 96 % 0.02 in 74 W/m2
14:54 52.3 °F 51.2 °F 29.53 in North 7.0 mph 15.0 mph 96 % 0.03 in 69 W/m2
14:59 52.2 °F 51.1 °F 29.53 in North 8.0 mph 15.0 mph 96 % 0.02 in 91 W/m2
15:04 52.2 °F 51.1 °F 29.53 in North 7.0 mph 15.0 mph 96 % 0.02 in 69 W/m2
15:09 52.3 °F 51.2 °F 29.53 in North 5.0 mph 13.0 mph 96 % 0.03 in 90 W/m2
15:14 52.3 °F 51.2 °F 29.53 in North 6.0 mph 15.0 mph 96 % 0.02 in 84 W/m2
15:19 52.2 °F 51.1 °F 29.53 in North 7.0 mph 15.0 mph 96 % 0.02 in 81 W/m2
15:24 52.2 °F 51.1 °F 29.52 in North 6.0 mph 14.0 mph 96 % 0.03 in 90 W/m2
15:29 52.3 °F 51.2 °F 29.52 in North 5.0 mph 13.0 mph 96 % 0.03 in 130 W/m2
15:34 52.3 °F 51.2 °F 29.52 in North 6.0 mph 14.0 mph 96 % 0.02 in 104 W/m2
15:39 52.3 °F 51.2 °F 29.52 in North 7.0 mph 18.0 mph 96 % 0.03 in 104 W/m2
15:44 52.2 °F 51.1 °F 29.52 in North 8.0 mph 18.0 mph 96 % 0.03 in 142 W/m2
15:49 52.0 °F 50.9 °F 29.52 in North 9.0 mph 15.0 mph 96 % 0.04 in 149 W/m2
15:54 52.0 °F 50.9 °F 29.52 in North 8.0 mph 16.0 mph 96 % 0.03 in 137 W/m2
15:59 52.2 °F 51.1 °F 29.52 in North 7.0 mph 16.0 mph 96 % 0.03 in 105 W/m2
16:04 52.2 °F 51.1 °F 29.52 in North 6.0 mph 15.0 mph 96 % 0.03 in 118 W/m2
16:09 52.2 °F 51.1 °F 29.52 in North 6.0 mph 14.0 mph 96 % 0.03 in 70 W/m2
16:14 52.2 °F 51.1 °F 29.52 in North 6.0 mph 14.0 mph 96 % 0.03 in 100 W/m2
16:19 52.3 °F 51.2 °F 29.52 in North 6.0 mph 11.0 mph 96 % 0.03 in 81 W/m2
16:24 52.3 °F 51.2 °F 29.52 in North 6.0 mph 11.0 mph 96 % 0.03 in 83 W/m2
16:29 52.3 °F 51.2 °F 29.51 in North 7.0 mph 16.0 mph 96 % 0.03 in 102 W/m2
16:34 52.3 °F 51.2 °F 29.51 in North 7.0 mph 16.0 mph 96 % 0.04 in 65 W/m2
16:35 52.3 °F 51.2 °F 29.51 in North 7.0 mph 16.0 mph 96 % 0.04 in 74 W/m2
16:40 52.3 °F 51.2 °F 29.51 in North 7.0 mph 14.0 mph 96 % 0.03 in 88 W/m2
16:45 52.2 °F 51.1 °F 29.51 in North 8.0 mph 18.0 mph 96 % 0.04 in 88 W/m2
16:50 52.2 °F 51.1 °F 29.51 in North 7.0 mph 18.0 mph 96 % 0.03 in 51 W/m2
16:55 52.2 °F 51.1 °F 29.51 in North 7.0 mph 15.0 mph 96 % 0.04 in 88 W/m2
17:00 52.0 °F 50.9 °F 29.51 in North 6.0 mph 12.0 mph 96 % 0.05 in 76 W/m2
17:01 52.0 °F 50.9 °F 29.51 in North 6.0 mph 12.0 mph 96 % 0.05 in 76 W/m2
17:06 52.0 °F 50.9 °F 29.51 in North 7.0 mph 14.0 mph 96 % 0.05 in 62 W/m2
17:11 51.8 °F 50.7 °F 29.51 in North 7.0 mph 14.0 mph 96 % 0.04 in 111 W/m2
17:16 51.8 °F 50.7 °F 29.51 in North 6.0 mph 13.0 mph 96 % 0.05 in 116 W/m2
17:20 51.8 °F 50.7 °F 29.51 in North 6.0 mph 13.0 mph 96 % 0.05 in 79 W/m2
17:25 51.6 °F 50.5 °F 29.51 in NNW 7.0 mph 13.0 mph 96 % 0.05 in 76 W/m2
17:30 51.4 °F 50.1 °F 29.51 in NNW 8.0 mph 18.0 mph 95 % 0.05 in 76 W/m2
17:35 51.3 °F 49.9 °F 29.51 in North 7.0 mph 18.0 mph 95 % 0.04 in 65 W/m2
17:40 51.3 °F 49.9 °F 29.50 in North 7.0 mph 16.0 mph 95 % 0.04 in 70 W/m2
17:45 51.3 °F 50.2 °F 29.50 in NNW 8.0 mph 16.0 mph 96 % 0.04 in 69 W/m2
17:50 51.3 °F 50.2 °F 29.50 in NNW 7.0 mph 19.0 mph 96 % 0.03 in 67 W/m2
17:55 51.4 °F 50.3 °F 29.50 in NNW 7.0 mph 19.0 mph 96 % 0.04 in 62 W/m2
18:00 51.4 °F 50.3 °F 29.50 in NNW 6.0 mph 14.0 mph 96 % 0.03 in 67 W/m2
18:05 51.4 °F 50.3 °F 29.50 in NNW 8.0 mph 14.0 mph 96 % 0.04 in 72 W/m2
18:10 51.4 °F 50.3 °F 29.50 in NNW 9.0 mph 21.0 mph 96 % 0.04 in 62 W/m2
18:15 51.3 °F 50.2 °F 29.50 in NNW 9.0 mph 21.0 mph 96 % 0.04 in 56 W/m2
18:20 51.3 °F 50.2 °F 29.50 in NNW 9.0 mph 19.0 mph 96 % 0.04 in 44 W/m2
18:25 51.1 °F 50.0 °F 29.50 in NNW 9.0 mph 19.0 mph 96 % 0.03 in 39 W/m2
18:30 51.3 °F 50.2 °F 29.50 in NNW 8.0 mph 16.0 mph 96 % 0.03 in 40 W/m2
18:35 51.3 °F 50.2 °F 29.50 in NNW 8.0 mph 16.0 mph 96 % 0.03 in 35 W/m2
18:40 51.1 °F 50.0 °F 29.50 in NNW 8.0 mph 20.0 mph 96 % 0.03 in 37 W/m2
18:41 51.1 °F 50.0 °F 29.50 in NNW 8.0 mph 20.0 mph 96 % 0.03 in 37 W/m2
18:51 51.1 °F 50.0 °F 29.50 in North 7.0 mph 19.0 mph 96 % 0.02 in 44 W/m2
18:56 50.7 °F 49.3 °F 29.50 in NNW 7.0 mph 16.0 mph 95 % 0.03 in 46 W/m2
19:01 50.7 °F 49.6 °F 29.49 in NNW 8.0 mph 15.0 mph 96 % 0.03 in 44 W/m2
19:06 50.7 °F 49.6 °F 29.49 in NNW 7.0 mph 15.0 mph 96 % 0.02 in 39 W/m2
19:11 50.7 °F 49.3 °F 29.49 in NNW 7.0 mph 15.0 mph 95 % 0.02 in 33 W/m2
19:16 50.5 °F 49.4 °F 29.49 in NNW 7.0 mph 14.0 mph 96 % 0.02 in 33 W/m2
19:21 50.5 °F 49.4 °F 29.49 in NNW 8.0 mph 19.0 mph 96 % 0.02 in 33 W/m2
19:26 50.5 °F 49.4 °F 29.49 in NNW 9.0 mph 19.0 mph 96 % 0.02 in 40 W/m2
19:31 50.5 °F 49.4 °F 29.49 in NNW 8.0 mph 15.0 mph 96 % 0.02 in 33 W/m2
19:36 50.4 °F 49.3 °F 29.49 in NNW 9.0 mph 16.0 mph 96 % 0.02 in 33 W/m2
19:41 50.4 °F 49.3 °F 29.48 in NNW 8.0 mph 16.0 mph 96 % 0.02 in 33 W/m2
19:46 50.4 °F 49.3 °F 29.48 in NNW 8.0 mph 15.0 mph 96 % 0.02 in 35 W/m2
19:51 50.4 °F 49.0 °F 29.48 in NNW 9.0 mph 16.0 mph 95 % 0.02 in 26 W/m2
19:56 50.2 °F 49.1 °F 29.48 in NNW 8.0 mph 16.0 mph 96 % 0.01 in 25 W/m2
20:01 50.2 °F 48.8 °F 29.48 in NNW 7.0 mph 14.0 mph 95 % 0.02 in 26 W/m2
20:06 50.2 °F 48.8 °F 29.48 in NNW 8.0 mph 15.0 mph 95 % 0.02 in 32 W/m2
20:12 50.2 °F 48.8 °F 29.47 in NNW 8.0 mph 15.0 mph 95 % 0.02 in 30 W/m2
20:17 50.2 °F 48.8 °F 29.47 in NNW 9.0 mph 15.0 mph 95 % 0.02 in 26 W/m2
20:22 50.2 °F 48.8 °F 29.47 in NNW 8.0 mph 15.0 mph 95 % 0.02 in 18 W/m2
20:27 50.2 °F 48.8 °F 29.47 in NNW 8.0 mph 15.0 mph 95 % 0.02 in 16 W/m2
20:32 50.2 °F 48.8 °F 29.47 in NNW 8.0 mph 15.0 mph 95 % 0.01 in 12 W/m2
20:37 50.2 °F 48.8 °F 29.47 in NNW 8.0 mph 16.0 mph 95 % 0.02 in 9 W/m2
20:42 50.2 °F 48.8 °F 29.47 in NW 8.0 mph 16.0 mph 95 % 0.02 in 7 W/m2
20:43 50.2 °F 48.8 °F 29.47 in NW 7.0 mph 14.0 mph 95 % 0.02 in 5 W/m2
20:48 50.2 °F 48.8 °F 29.47 in NNW 7.0 mph 19.0 mph 95 % 0.02 in 5 W/m2
20:53 50.2 °F 49.1 °F 29.47 in NW 7.0 mph 19.0 mph 96 % 0.02 in 0 W/m2
20:58 50.2 °F 49.1 °F 29.47 in NW 7.0 mph 13.0 mph 96 % 0.01 in 0 W/m2
21:03 50.2 °F 49.1 °F 29.46 in NW 6.0 mph 13.0 mph 96 % 0.01 in 0 W/m2
21:08 50.2 °F 49.1 °F 29.46 in NNW 6.0 mph 13.0 mph 96 % 0.01 in 0 W/m2
21:13 50.2 °F 49.1 °F 29.46 in NNW 8.0 mph 21.0 mph 96 % 0.01 in 0 W/m2
21:18 50.0 °F 48.9 °F 29.46 in NNW 8.0 mph 21.0 mph 96 % 0.01 in 0 W/m2
21:23 50.0 °F 48.9 °F 29.46 in NW 7.0 mph 14.0 mph 96 % 0.01 in 0 W/m2
21:28 50.0 °F 48.9 °F 29.46 in NNW 6.0 mph 14.0 mph 96 % 0.01 in 0 W/m2
21:33 50.0 °F 48.9 °F 29.46 in NNW 8.0 mph 15.0 mph 96 % 0.01 in 0 W/m2
21:38 49.8 °F 48.7 °F 29.46 in NW 8.0 mph 15.0 mph 96 % 0.00 in 0 W/m2
21:43 49.8 °F 48.7 °F 29.45 in NW 7.0 mph 18.0 mph 96 % 0.00 in 0 W/m2
21:48 49.8 °F 48.7 °F 29.45 in NW 8.0 mph 20.0 mph 96 % 0.00 in 0 W/m2
21:53 49.8 °F 48.7 °F 29.45 in NW 8.0 mph 20.0 mph 96 % 0.00 in 0 W/m2
21:58 49.8 °F 48.7 °F 29.45 in NW 8.0 mph 14.0 mph 96 % 0.00 in 0 W/m2
22:03 49.8 °F 48.7 °F 29.45 in NW 7.0 mph 14.0 mph 96 % 0.00 in 0 W/m2
22:08 50.0 °F 48.9 °F 29.44 in NW 7.0 mph 15.0 mph 96 % 0.01 in 0 W/m2
22:13 50.0 °F 48.9 °F 29.44 in NW 7.0 mph 15.0 mph 96 % 0.01 in 0 W/m2
22:18 50.0 °F 48.9 °F 29.44 in NW 7.0 mph 14.0 mph 96 % 0.01 in 0 W/m2
22:23 50.2 °F 49.1 °F 29.44 in NW 8.0 mph 14.0 mph 96 % 0.01 in 0 W/m2
22:28 50.2 °F 49.1 °F 29.43 in NW 8.0 mph 14.0 mph 96 % 0.01 in 0 W/m2
22:33 50.2 °F 49.1 °F 29.43 in NW 8.0 mph 15.0 mph 96 % 0.01 in 0 W/m2
22:35 50.2 °F 49.1 °F 29.43 in NW 8.0 mph 15.0 mph 96 % 0.01 in 0 W/m2
22:40 50.2 °F 49.1 °F 29.43 in NW 9.0 mph 15.0 mph 96 % 0.01 in 0 W/m2
22:45 50.2 °F 49.1 °F 29.43 in NW 8.0 mph 14.0 mph 96 % 0.01 in 0 W/m2
22:50 50.4 °F 49.3 °F 29.43 in NW 8.0 mph 14.0 mph 96 % 0.01 in 0 W/m2
22:55 50.4 °F 49.3 °F 29.42 in NW 8.0 mph 14.0 mph 96 % 0.01 in 0 W/m2
23:00 50.4 °F 49.3 °F 29.42 in NW 8.0 mph 14.0 mph 96 % 0.01 in 0 W/m2
23:05 50.4 °F 49.3 °F 29.42 in NW 9.0 mph 16.0 mph 96 % 0.01 in 0 W/m2
23:07 50.4 °F 49.3 °F 29.42 in NW 9.0 mph 16.0 mph 96 % 0.00 in 0 W/m2
23:12 50.4 °F 49.3 °F 29.41 in NW 9.0 mph 18.0 mph 96 % 0.00 in 0 W/m2
23:17 50.4 °F 49.3 °F 29.41 in NW 9.0 mph 18.0 mph 96 % 0.01 in 0 W/m2
23:22 50.4 °F 49.3 °F 29.41 in NW 9.0 mph 16.0 mph 96 % 0.01 in 0 W/m2
23:27 50.5 °F 49.4 °F 29.41 in NW 8.0 mph 20.0 mph 96 % 0.01 in 0 W/m2
23:32 50.5 °F 49.4 °F 29.41 in NW 9.0 mph 20.0 mph 96 % 0.01 in 0 W/m2
23:37 50.5 °F 49.4 °F 29.41 in NW 8.0 mph 16.0 mph 96 % 0.01 in 0 W/m2
23:42 50.5 °F 49.4 °F 29.41 in NW 8.0 mph 16.0 mph 96 % 0.01 in 0 W/m2
23:47 50.5 °F 49.4 °F 29.40 in NW 7.0 mph 14.0 mph 96 % 0.01 in 0 W/m2
23:52 50.5 °F 49.4 °F 29.40 in NW 7.0 mph 15.0 mph 96 % 0.02 in 0 W/m2
23:57 50.5 °F 49.4 °F 29.40 in NW 8.0 mph 15.0 mph 96 % 0.02 in 0 W/m2
Delerius-Weather
Compliments of Weather Underground - 2.25 mb

Data updates at regular intervals.